createdAt,value
2018-12-12T00:01:24.315Z,2.60
2018-12-12T00:03:55.847Z,2.60
2018-12-12T00:06:27.328Z,2.60
2018-12-12T00:08:56.661Z,2.50
2018-12-12T00:11:26.055Z,2.50
2018-12-12T00:13:55.254Z,2.50
2018-12-12T00:16:24.716Z,2.50
2018-12-12T00:18:54.063Z,2.60
2018-12-12T00:21:23.907Z,2.60
2018-12-12T00:23:53.207Z,2.60
2018-12-12T00:26:22.521Z,2.60
2018-12-12T00:28:51.775Z,2.60
2018-12-12T00:31:21.033Z,2.60
2018-12-12T00:33:50.278Z,2.60
2018-12-12T00:36:19.604Z,2.60
2018-12-12T00:38:49.091Z,2.60
2018-12-12T00:41:18.795Z,2.60
2018-12-12T00:43:48.141Z,2.60
2018-12-12T00:46:17.417Z,2.70
2018-12-12T00:48:46.726Z,2.70
2018-12-12T00:51:16.025Z,2.60
2018-12-12T00:53:45.436Z,2.60
2018-12-12T00:56:14.790Z,2.60
2018-12-12T00:58:43.984Z,2.60
2018-12-12T01:01:13.330Z,2.60
2018-12-12T01:03:42.590Z,2.60
2018-12-12T01:06:12.070Z,2.50
2018-12-12T01:08:41.322Z,2.50
2018-12-12T01:11:16.072Z,2.50
2018-12-12T01:13:45.301Z,2.50
2018-12-12T01:16:14.544Z,2.50
2018-12-12T01:18:43.960Z,2.60
2018-12-12T01:21:13.450Z,2.60
2018-12-12T01:23:42.860Z,2.60
2018-12-12T01:26:12.333Z,2.60
2018-12-12T01:28:41.604Z,2.60
2018-12-12T01:31:10.859Z,2.60
2018-12-12T01:33:40.184Z,2.50
2018-12-12T01:36:09.506Z,2.50
2018-12-12T01:38:38.761Z,2.60
2018-12-12T01:41:08.252Z,2.60
2018-12-12T01:43:37.528Z,2.60
2018-12-12T01:46:06.761Z,2.50
2018-12-12T01:48:43.146Z,2.50
2018-12-12T01:51:12.379Z,2.50
2018-12-12T01:53:41.591Z,2.60
2018-12-12T01:56:10.940Z,2.60
2018-12-12T01:58:40.132Z,2.50
2018-12-12T02:01:09.397Z,2.50
2018-12-12T02:03:38.599Z,2.50
2018-12-12T02:06:08.054Z,2.40
2018-12-12T02:08:37.532Z,2.40
2018-12-12T02:11:06.996Z,2.40
2018-12-12T02:13:37.052Z,2.40
2018-12-12T02:16:08.154Z,2.30
2018-12-12T02:18:39.911Z,2.30
2018-12-12T02:21:09.160Z,2.30
2018-12-12T02:23:38.410Z,2.30
2018-12-12T02:26:07.653Z,2.40
2018-12-12T02:28:36.918Z,2.30
2018-12-12T02:31:06.274Z,2.30
2018-12-12T02:33:35.541Z,2.30
2018-12-12T02:36:04.838Z,2.30
2018-12-12T02:38:35.183Z,2.30
2018-12-12T02:41:04.589Z,2.40
2018-12-12T02:43:33.877Z,2.40
2018-12-12T02:46:03.291Z,2.30
2018-12-12T02:48:32.718Z,2.30
2018-12-12T02:51:02.132Z,2.20
2018-12-12T02:53:31.411Z,2.20
2018-12-12T02:56:00.911Z,2.10
2018-12-12T02:58:30.214Z,2.10
2018-12-12T03:00:59.835Z,2.00
2018-12-12T03:03:30.133Z,2.10
2018-12-12T03:05:59.520Z,2.00
2018-12-12T03:08:28.765Z,2.00
2018-12-12T03:10:57.936Z,2.00
2018-12-12T03:13:27.145Z,2.00
2018-12-12T03:15:56.362Z,2.00
2018-12-12T03:18:25.646Z,1.90
2018-12-12T03:20:55.008Z,2.00
2018-12-12T03:23:24.472Z,1.90
2018-12-12T03:25:53.763Z,1.90
2018-12-12T03:28:22.934Z,1.90
2018-12-12T03:30:52.440Z,1.80
2018-12-12T03:33:21.679Z,1.70
2018-12-12T03:35:52.036Z,1.70
2018-12-12T03:38:21.226Z,1.60
2018-12-12T03:40:51.144Z,1.50
2018-12-12T03:43:20.378Z,1.50
2018-12-12T03:45:49.609Z,1.50
2018-12-12T03:48:20.894Z,1.40
2018-12-12T03:50:50.968Z,1.40
2018-12-12T03:53:20.188Z,1.50
2018-12-12T03:55:49.697Z,1.40
2018-12-12T03:58:18.856Z,1.40
2018-12-12T04:00:48.360Z,1.40
2018-12-12T04:03:17.663Z,1.60
2018-12-12T04:05:47.003Z,1.70
2018-12-12T04:08:16.197Z,1.60
2018-12-12T04:10:45.489Z,1.50
2018-12-12T04:13:14.727Z,1.40
2018-12-12T04:15:44.170Z,1.50
2018-12-12T04:18:13.400Z,1.50
2018-12-12T04:20:42.665Z,1.70
2018-12-12T04:23:11.904Z,1.70
2018-12-12T04:25:41.220Z,1.80
2018-12-12T04:28:10.502Z,1.90
2018-12-12T04:30:39.995Z,2.00
2018-12-12T04:33:09.305Z,2.10
2018-12-12T04:35:38.548Z,2.10
2018-12-12T04:38:07.872Z,2.10
2018-12-12T04:40:37.094Z,2.00
2018-12-12T04:43:06.342Z,1.90
2018-12-12T04:45:36.276Z,1.90
2018-12-12T04:48:05.519Z,1.80
2018-12-12T04:50:35.016Z,1.90
2018-12-12T04:53:04.251Z,2.00
2018-12-12T04:55:33.599Z,1.90
2018-12-12T05:00:49.347Z,1.70
2018-12-12T05:03:18.824Z,1.70
2018-12-12T05:05:48.079Z,1.70
2018-12-12T05:08:17.309Z,1.70
2018-12-12T05:10:46.904Z,1.70
2018-12-12T05:13:16.293Z,1.70
2018-12-12T05:15:45.721Z,1.70
2018-12-12T05:18:15.075Z,1.70
2018-12-12T05:27:32.153Z,1.70
2018-12-12T05:30:01.398Z,1.50
2018-12-12T05:32:31.069Z,1.60
2018-12-12T05:35:00.279Z,1.60
2018-12-12T05:37:29.711Z,1.50
2018-12-12T05:39:58.961Z,1.60
2018-12-12T05:42:28.348Z,1.70
2018-12-12T05:44:57.554Z,1.70
2018-12-12T05:47:26.901Z,1.80
2018-12-12T05:49:56.173Z,1.60
2018-12-12T05:52:25.496Z,1.50
2018-12-12T05:54:54.683Z,1.50
2018-12-12T05:57:23.928Z,1.50
2018-12-12T05:59:53.312Z,1.40
2018-12-12T06:02:22.645Z,1.40
2018-12-12T06:04:51.965Z,1.50
2018-12-12T06:07:21.297Z,1.50
2018-12-12T06:09:50.597Z,1.50
2018-12-12T06:12:20.169Z,1.50
2018-12-12T06:14:49.424Z,1.50
2018-12-12T06:17:18.873Z,1.60
2018-12-12T06:19:48.365Z,1.60
2018-12-12T06:22:18.141Z,1.70
2018-12-12T06:24:47.391Z,1.80
2018-12-12T06:27:16.632Z,1.80
2018-12-12T06:29:46.967Z,1.80
2018-12-12T06:32:16.419Z,1.70
2018-12-12T06:34:45.617Z,1.80
2018-12-12T06:37:14.895Z,1.80
2018-12-12T06:39:44.261Z,1.70
2018-12-12T06:42:13.538Z,1.80
2018-12-12T06:44:42.768Z,1.80
2018-12-12T06:47:12.264Z,1.80
2018-12-12T06:49:41.574Z,1.70
2018-12-12T06:52:11.112Z,1.60
2018-12-12T06:54:40.388Z,1.50
2018-12-12T06:57:09.876Z,1.50
2018-12-12T06:59:39.121Z,1.40
2018-12-12T07:02:08.580Z,1.60
2018-12-12T07:04:38.207Z,1.60
2018-12-12T07:07:08.304Z,1.70
2018-12-12T07:09:37.578Z,1.80
2018-12-12T07:12:06.934Z,1.70
2018-12-12T07:14:36.203Z,1.60
2018-12-12T07:17:05.407Z,1.60
2018-12-12T07:19:34.605Z,1.60
2018-12-12T07:22:03.842Z,1.60
2018-12-12T07:24:33.153Z,1.50
2018-12-12T07:27:02.715Z,1.60
2018-12-12T07:29:32.039Z,1.60
2018-12-12T07:32:01.533Z,1.60
2018-12-12T07:34:31.003Z,1.60
2018-12-12T07:37:00.241Z,1.60
2018-12-12T07:39:29.715Z,1.50
2018-12-12T07:41:59.177Z,1.60
2018-12-12T07:44:46.127Z,1.80
2018-12-12T07:47:17.356Z,1.80
2018-12-12T07:49:48.565Z,1.90
2018-12-12T07:52:23.339Z,2.00
2018-12-12T07:54:52.651Z,1.90
2018-12-12T07:57:22.061Z,1.90
2018-12-12T07:59:51.559Z,1.90
2018-12-12T08:02:23.201Z,2.00
2018-12-12T08:04:53.285Z,2.10
2018-12-12T08:07:23.029Z,2.20
2018-12-12T08:09:52.229Z,2.40
2018-12-12T08:12:22.765Z,2.40
2018-12-12T08:14:52.004Z,2.40
2018-12-12T08:17:21.308Z,2.30
2018-12-12T08:19:50.616Z,2.20
2018-12-12T08:22:20.147Z,2.30
2018-12-12T08:24:49.452Z,2.40
2018-12-12T08:27:18.839Z,2.40
2018-12-12T08:29:48.118Z,2.50
2018-12-12T08:32:19.398Z,2.60
2018-12-12T08:34:48.722Z,2.70
2018-12-12T08:37:17.976Z,2.70
2018-12-12T08:39:47.200Z,2.80
2018-12-12T08:42:16.436Z,2.90
2018-12-12T08:44:45.654Z,2.90
2018-12-12T08:47:15.059Z,2.90
2018-12-12T08:49:44.383Z,2.90
2018-12-12T08:52:13.600Z,3.00
2018-12-12T08:54:42.766Z,3.00
2018-12-12T08:57:12.082Z,2.80
2018-12-12T08:59:41.384Z,2.90
2018-12-12T09:02:10.568Z,3.10
2018-12-12T09:04:40.974Z,3.00
2018-12-12T09:07:10.179Z,3.20
2018-12-12T09:09:39.595Z,3.30
2018-12-12T09:12:08.916Z,3.50
2018-12-12T09:14:38.070Z,3.50
2018-12-12T09:17:09.838Z,3.60
2018-12-12T09:19:38.964Z,3.60
2018-12-12T09:22:08.150Z,3.50
2018-12-12T09:24:37.538Z,3.50
2018-12-12T09:27:06.983Z,3.70
2018-12-12T09:29:36.374Z,3.60
2018-12-12T09:32:07.646Z,3.60
2018-12-12T09:34:38.880Z,3.50
2018-12-12T09:37:08.157Z,3.40
2018-12-12T09:39:51.493Z,3.30
2018-12-12T09:42:20.867Z,3.40
2018-12-12T09:44:50.165Z,3.40
2018-12-12T09:47:19.541Z,3.50
2018-12-12T09:49:49.232Z,3.50
2018-12-12T09:52:20.558Z,3.60
2018-12-12T09:54:51.885Z,3.60
2018-12-12T09:57:21.367Z,3.60
2018-12-12T09:59:50.595Z,3.50
2018-12-12T10:02:20.039Z,3.50
2018-12-12T10:04:49.242Z,3.60
2018-12-12T10:07:18.458Z,3.70
2018-12-12T10:09:47.630Z,3.80
2018-12-12T10:12:17.044Z,3.90
2018-12-12T10:14:46.272Z,4.00
2018-12-12T10:17:15.484Z,4.20
2018-12-12T10:19:44.720Z,4.40
2018-12-12T10:22:14.038Z,4.50
2018-12-12T10:24:43.254Z,4.40
2018-12-12T10:27:12.706Z,4.40
2018-12-12T10:29:41.992Z,4.50
2018-12-12T10:32:11.238Z,4.60
2018-12-12T10:34:40.448Z,4.70
2018-12-12T10:37:09.804Z,4.70
2018-12-12T10:39:39.028Z,4.90
2018-12-12T10:42:08.463Z,4.90
2018-12-12T10:44:37.764Z,4.80
2018-12-12T10:47:07.225Z,4.80
2018-12-12T10:49:36.842Z,4.90
2018-12-12T10:52:06.236Z,5.10
2018-12-12T10:54:35.752Z,5.00
2018-12-12T10:57:05.146Z,5.10
2018-12-12T10:59:34.508Z,5.10
2018-12-12T11:02:09.264Z,5.20
2018-12-12T11:04:38.575Z,5.10
2018-12-12T11:07:08.098Z,5.20
2018-12-12T11:09:37.388Z,5.20
2018-12-12T11:12:06.783Z,5.20
2018-12-12T11:14:36.081Z,5.20
2018-12-12T11:17:05.647Z,5.20
2018-12-12T11:19:34.899Z,5.30
2018-12-12T11:22:04.166Z,5.20
2018-12-12T11:24:33.448Z,5.10
2018-12-12T11:27:02.743Z,5.10
2018-12-12T11:29:32.203Z,5.00
2018-12-12T11:32:01.445Z,4.90
2018-12-12T11:34:30.697Z,4.80
2018-12-12T11:36:59.908Z,4.90
2018-12-12T11:39:29.227Z,5.00
2018-12-12T11:41:59.193Z,5.00
2018-12-12T11:44:28.891Z,5.10
2018-12-12T11:46:58.609Z,5.10
2018-12-12T11:49:27.835Z,5.10
2018-12-12T11:51:57.383Z,5.30
2018-12-12T11:54:26.677Z,5.20
2018-12-12T11:56:56.074Z,5.20
2018-12-12T11:59:27.354Z,5.10
2018-12-12T12:01:56.638Z,4.90
2018-12-12T12:04:25.865Z,4.70
2018-12-12T12:06:55.442Z,4.60
2018-12-12T12:09:24.744Z,4.30
2018-12-12T12:11:54.042Z,4.10
2018-12-12T12:14:25.492Z,3.90
2018-12-12T12:16:54.962Z,4.10
2018-12-12T12:19:24.236Z,4.10
2018-12-12T12:21:53.689Z,4.20
2018-12-12T12:24:24.239Z,4.20
2018-12-12T12:26:53.867Z,4.30
2018-12-12T12:32:09.294Z,4.30
2018-12-12T12:34:38.556Z,4.30
2018-12-12T12:37:07.973Z,4.30
2018-12-12T12:39:37.212Z,4.20
2018-12-12T12:42:06.714Z,4.00
2018-12-12T12:44:37.035Z,3.90
2018-12-12T12:47:06.471Z,3.90
2018-12-12T12:49:35.832Z,3.90
2018-12-12T12:52:05.808Z,3.90
2018-12-12T12:54:35.042Z,3.80
2018-12-12T12:57:04.309Z,3.70
2018-12-12T12:59:33.613Z,3.70
2018-12-12T13:02:02.911Z,3.60
2018-12-12T13:04:32.165Z,3.70
2018-12-12T13:07:01.645Z,3.60
2018-12-12T13:09:30.913Z,3.50
2018-12-12T13:12:00.346Z,3.30
2018-12-12T13:14:30.225Z,3.20
2018-12-12T13:16:59.447Z,3.30
2018-12-12T13:19:29.280Z,3.30
2018-12-12T13:21:58.507Z,3.40
2018-12-12T13:24:27.690Z,3.30
2018-12-12T13:26:56.910Z,3.30
2018-12-12T13:29:27.252Z,3.30
2018-12-12T13:31:57.012Z,3.20
2018-12-12T13:34:26.269Z,3.20
2018-12-12T13:36:55.558Z,3.20
2018-12-12T13:39:24.867Z,3.10
2018-12-12T13:41:56.139Z,3.20
2018-12-12T13:44:25.476Z,3.10
2018-12-12T13:46:54.873Z,3.00
2018-12-12T13:49:24.121Z,3.00
2018-12-12T13:51:53.722Z,2.90
2018-12-12T13:54:23.387Z,2.90
2018-12-12T13:56:52.787Z,2.80
2018-12-12T13:59:22.061Z,2.90
2018-12-12T14:01:51.563Z,2.80
2018-12-12T14:04:22.857Z,2.90
2018-12-12T14:06:52.243Z,2.90
2018-12-12T14:09:21.510Z,3.00
2018-12-12T14:11:50.843Z,2.90
2018-12-12T14:14:20.075Z,2.80
2018-12-12T14:16:49.303Z,2.90
2018-12-12T14:19:18.475Z,2.90
2018-12-12T14:21:47.765Z,2.80
2018-12-12T14:24:17.060Z,2.70
2018-12-12T14:26:46.433Z,2.70
2018-12-12T14:29:16.049Z,2.70
2018-12-12T14:31:45.307Z,2.70
2018-12-12T14:34:14.645Z,2.70
2018-12-12T14:36:45.028Z,2.70
2018-12-12T14:39:14.418Z,2.70
2018-12-12T14:41:43.778Z,2.70
2018-12-12T14:44:12.983Z,2.70
2018-12-12T14:46:42.511Z,2.60
2018-12-12T14:49:11.784Z,2.60
2018-12-12T14:51:41.096Z,2.60
2018-12-12T14:54:10.434Z,2.70
2018-12-12T14:56:39.774Z,2.60
2018-12-12T14:59:09.058Z,2.60
2018-12-12T15:01:38.321Z,2.50
2018-12-12T15:04:07.504Z,2.50
2018-12-12T15:06:36.770Z,2.50
2018-12-12T15:09:07.748Z,2.60
2018-12-12T15:11:37.983Z,2.50
2018-12-12T15:14:07.190Z,2.50
2018-12-12T15:16:36.544Z,2.50
2018-12-12T15:19:05.854Z,2.50
2018-12-12T15:21:35.149Z,2.40
2018-12-12T15:24:04.447Z,2.40
2018-12-12T15:26:33.965Z,2.40
2018-12-12T15:29:03.190Z,2.40
2018-12-12T15:31:32.457Z,2.30
2018-12-12T15:34:01.714Z,2.30
2018-12-12T15:36:31.072Z,2.30
2018-12-12T15:39:00.290Z,2.40
2018-12-12T15:41:29.789Z,2.40
2018-12-12T15:43:59.123Z,2.40
2018-12-12T15:46:28.433Z,2.40
2018-12-12T15:48:57.849Z,2.40
2018-12-12T15:51:27.227Z,2.50
2018-12-12T15:53:56.580Z,2.40
2018-12-12T15:56:26.047Z,2.40
2018-12-12T15:58:55.298Z,2.40
2018-12-12T16:01:24.533Z,2.40
2018-12-12T16:03:53.919Z,2.30
2018-12-12T16:06:23.421Z,2.30
2018-12-12T16:08:52.807Z,2.30
2018-12-12T16:11:22.205Z,2.30
2018-12-12T16:13:51.696Z,2.30
2018-12-12T16:16:21.347Z,2.30
2018-12-12T16:18:50.571Z,2.30
2018-12-12T16:21:20.021Z,2.30
2018-12-12T16:23:49.304Z,2.30
2018-12-12T16:26:18.755Z,2.40
2018-12-12T16:28:48.184Z,2.40
2018-12-12T16:31:17.431Z,2.40
2018-12-12T16:33:48.005Z,2.40
2018-12-12T16:36:17.463Z,2.40
2018-12-12T16:38:51.129Z,2.30
2018-12-12T16:41:20.585Z,2.30
2018-12-12T16:43:49.945Z,2.30
2018-12-12T16:46:21.397Z,2.30
2018-12-12T16:48:50.715Z,2.30
2018-12-12T16:51:20.238Z,2.40
2018-12-12T16:53:49.811Z,2.40
2018-12-12T16:56:19.223Z,2.40
2018-12-12T16:58:48.551Z,2.40
2018-12-12T17:01:18.151Z,2.40
2018-12-12T17:03:47.557Z,2.40
2018-12-12T17:06:16.920Z,2.40
2018-12-12T17:08:46.224Z,2.50
2018-12-12T17:11:15.590Z,2.40
2018-12-12T17:13:44.883Z,2.40
2018-12-12T17:16:14.581Z,2.40
2018-12-12T17:18:43.774Z,2.50
2018-12-12T17:21:13.100Z,2.40
2018-12-12T17:23:42.297Z,2.40
2018-12-12T17:26:11.811Z,2.50
2018-12-12T17:28:41.964Z,2.40
2018-12-12T17:31:11.486Z,2.50
2018-12-12T17:33:41.058Z,2.40
2018-12-12T17:36:10.515Z,2.40
2018-12-12T17:38:39.941Z,2.40
2018-12-12T17:41:09.360Z,2.40
2018-12-12T17:43:39.984Z,2.30
2018-12-12T17:46:09.408Z,2.30
2018-12-12T17:48:39.566Z,2.30
2018-12-12T17:51:09.066Z,2.30
2018-12-12T17:53:38.416Z,2.30
2018-12-12T17:56:08.010Z,2.30
2018-12-12T17:58:37.726Z,2.30
2018-12-12T18:01:07.500Z,2.30
2018-12-12T18:03:38.817Z,2.30
2018-12-12T18:06:13.956Z,2.30
2018-12-12T18:08:44.048Z,2.20
2018-12-12T18:11:13.808Z,2.30
2018-12-12T18:13:43.471Z,2.30
2018-12-12T18:16:14.912Z,2.30
2018-12-12T18:18:45.027Z,2.30
2018-12-12T18:21:14.394Z,2.30
2018-12-12T18:23:47.073Z,2.30
2018-12-12T18:26:16.488Z,2.30
2018-12-12T18:28:45.778Z,2.30
2018-12-12T18:31:16.957Z,2.30
2018-12-12T18:34:04.173Z,2.30
2018-12-12T18:36:36.532Z,2.30
2018-12-12T18:39:07.974Z,2.30
2018-12-12T18:41:37.539Z,2.30
2018-12-12T18:44:08.833Z,2.20
2018-12-12T18:46:38.396Z,2.20
2018-12-12T18:49:07.762Z,2.20
2018-12-12T18:51:39.162Z,2.20
2018-12-12T18:54:09.411Z,2.20
2018-12-12T18:56:40.982Z,2.10
2018-12-12T18:59:10.484Z,2.20
2018-12-12T19:01:39.903Z,2.20
2018-12-12T19:04:09.397Z,2.20
2018-12-12T19:06:38.710Z,2.20
2018-12-12T19:09:08.362Z,2.20
2018-12-12T19:11:44.375Z,2.20
2018-12-12T19:14:10.917Z,2.20
2018-12-12T19:16:40.216Z,2.20
2018-12-12T19:19:09.515Z,2.20
2018-12-12T19:21:39.388Z,2.20
2018-12-12T19:24:08.811Z,2.10
2018-12-12T19:26:38.184Z,2.10
2018-12-12T19:29:07.532Z,2.10
2018-12-12T19:31:37.020Z,2.20
2018-12-12T19:34:06.669Z,2.20
2018-12-12T19:36:37.119Z,2.20
2018-12-12T19:39:08.625Z,2.20
2018-12-12T19:41:40.162Z,2.30
2018-12-12T19:44:09.482Z,2.30
2018-12-12T19:46:38.789Z,2.30
2018-12-12T19:49:08.274Z,2.30
2018-12-12T19:51:37.840Z,2.20
2018-12-12T19:54:07.120Z,2.30
2018-12-12T19:56:36.796Z,2.30
2018-12-12T19:59:06.192Z,2.20
2018-12-12T20:01:35.530Z,2.10
2018-12-12T20:04:05.632Z,2.10
2018-12-12T20:06:35.024Z,2.10
2018-12-12T20:09:07.402Z,2.20
2018-12-12T20:11:38.348Z,2.20
2018-12-12T20:14:07.973Z,2.20
2018-12-12T20:16:37.631Z,2.30
2018-12-12T20:19:07.709Z,2.30
